Stewarts Point, CA (95480)

11:23 PM PDT on October 25, 2014 (GMT -0700)
Unit 18, The Sea Ranch, CA | Change Station
CLOSE
Current Station
Personal Weather Station
Location: The Sea Ranch, CA
Elevation: 80 ft
Nearby Weather Stations

Elev 80 ft 38.71 °N, 123.45 °W | Updated 12 minutes ago

Mostly Cloudy
Mostly Cloudy
55.4 °F
Feels Like 55.4 °F
N
4.0
Wind Variable Wind from NNE
Gusts 6.0 mph

Today
High -- | Low -- °F
--% Chance of Precip.
Yesterday
High -- | Low -- °F
Precip. -- in
7:32 AM 6:21 PM
Waxing Crescent, 6% visible
Pressure 30.11 in
Visibility 10.0 miles
Clouds Few 3400 ft
Dew Point 54 °F
Humidity 95%
Rainfall 0.30 in
Snow Depth Not available.
UV 0.0 out of 12
Pollen .10 out of 12
Air Quality Not available.
Flu Activity Sporadic
METAR KSTS 260553Z AUTO 00000KT 10SM FEW034 12/11 A3013 RMK AO2 SLP195 T01220111 10178 20111 51023

More Conditions Fewer Conditions

Pressure 30.11 in
Visibility 10.0 miles
Clouds Few 3400 ft
Dew Point 54 °F
Humidity 95%
Rainfall 0.30 in
Snow Depth Not available.
UV 0.0 out of 12
Pollen .10 out of 12
Air Quality Not available.
Flu Activity Sporadic
METAR KSTS 260553Z AUTO 00000KT 10SM FEW034 12/11 A3013 RMK AO2 SLP195 T01220111 10178 20111 51023

More Conditions Fewer Conditions

10-Day Weather Forecast

Almanac

Astronomy

Oct. 25, 2014 Rise Set
Actual Time 7:32 AM PDT 6:21 PM PDT
Civil Twilight 7:05 AM PDT 6:48 PM PDT
Nautical Twilight 6:34 AM PDT 7:19 PM PDT
Astronomical Twilight 6:03 AM PDT 7:50 PM PDT
Moon 9:16 AM PDT (10/25) 7:50 PM PDT (10/25)
Length of Visible Light 11h 43m
Length of Day
10h 48m
Tomorrow will be 2m 18s shorter.
Waxing Crescent, 6% of the Moon is Illuminated
Oct 26
Waxing Crescent
Oct 30
First Quarter
Nov 6
Full
Nov 14
Last Quarter
Nov 22
New

Community

WunderPhotos

Upload Photos

1,765,114 photos uploaded!

Nearby

Snow Depth

Station Depth Elevation
CSS Lab 3 in 6900 ft
Squaw Valley 1 in 8200 ft
Ward Creek #3 1 in 6750 ft
Independence Lake 3 in 8450 ft
Independence Camp 0 in 7000 ft

Earthquake Activity

City Distance Mag. Time & Date
Antioch, California 93 miles 2.7 6:42 AM PDT
2014-10-25
Deer Park, California 49 miles 2.8 6:40 AM PDT
2014-10-25
Minimum magnitude displayed is 2.5.

Coastal Water Temperatures

Place Temperature
Point Reyes, CA 62.1 °F
Arena Cove, CA 62.1 °F
San Francisco, CA 64.0 °F
Richmond, CA 64.9 °F

Nearby Weather Stations